createdAt,value
2023-05-24T00:02:21.671Z,30.70
2023-05-24T00:04:49.787Z,30.97
2023-05-24T00:07:17.475Z,31.13
2023-05-24T00:09:45.051Z,30.96
2023-05-24T00:12:12.667Z,30.88
2023-05-24T00:14:40.251Z,30.45
2023-05-24T00:17:07.739Z,30.18
2023-05-24T00:19:38.585Z,30.75
2023-05-24T00:22:06.295Z,30.20
2023-05-24T00:24:33.873Z,29.98
2023-05-24T00:27:01.401Z,29.93
2023-05-24T00:29:30.790Z,29.99
2023-05-24T00:32:01.038Z,30.09
2023-05-24T00:34:28.721Z,30.15
2023-05-24T00:36:57.379Z,30.71
2023-05-24T00:39:24.974Z,30.57
2023-05-24T00:41:52.713Z,30.47
2023-05-24T00:44:20.321Z,30.15
2023-05-24T00:46:49.112Z,30.33
2023-05-24T00:49:16.786Z,30.54
2023-05-24T00:51:46.271Z,30.43
2023-05-24T00:54:15.416Z,30.57
2023-05-24T00:56:43.795Z,31.58
2023-05-24T00:59:11.444Z,31.76
2023-05-24T01:01:39.413Z,31.35
2023-05-24T01:04:07.773Z,31.11
2023-05-24T01:07:08.083Z,31.22
2023-05-24T01:09:58.118Z,31.20
2023-05-24T01:12:51.465Z,31.42
2023-05-24T01:15:28.727Z,32.71
2023-05-24T01:18:06.406Z,31.98
2023-05-24T01:20:35.410Z,31.93
2023-05-24T01:23:08.322Z,32.09
2023-05-24T01:25:42.303Z,32.62
2023-05-24T01:28:12.800Z,32.72
2023-05-24T01:30:42.280Z,33.03
2023-05-24T01:33:10.375Z,32.94
2023-05-24T01:35:41.609Z,32.74
2023-05-24T01:38:11.362Z,32.93
2023-05-24T01:40:40.681Z,33.00
2023-05-24T01:43:08.261Z,32.89
2023-05-24T01:45:48.973Z,31.98
2023-05-24T01:48:29.574Z,32.26
2023-05-24T01:51:01.125Z,31.87
2023-05-24T01:53:35.114Z,31.61
2023-05-24T01:56:06.002Z,30.80
2023-05-24T01:58:34.977Z,31.27
2023-05-24T02:01:03.532Z,30.92
2023-05-24T02:03:32.095Z,29.94
2023-05-24T02:05:59.661Z,29.27
2023-05-24T02:08:27.178Z,29.52
2023-05-24T02:10:54.806Z,29.27
2023-05-24T02:13:22.545Z,28.86
2023-05-24T02:15:50.258Z,29.22
2023-05-24T02:18:18.985Z,29.55
2023-05-24T02:20:47.311Z,29.15
2023-05-24T02:23:14.930Z,29.84
2023-05-24T02:25:42.441Z,29.57
2023-05-24T02:28:10.362Z,29.09
2023-05-24T02:30:38.789Z,29.44
2023-05-24T02:33:07.001Z,29.08
2023-05-24T02:35:34.732Z,29.01
2023-05-24T02:38:04.042Z,28.78
2023-05-24T02:40:31.648Z,28.55
2023-05-24T02:42:59.211Z,28.63
2023-05-24T02:45:26.730Z,28.23
2023-05-24T02:47:54.227Z,28.67
2023-05-24T02:50:21.749Z,28.53
2023-05-24T02:52:49.351Z,28.72
2023-05-24T02:55:16.868Z,28.11
2023-05-24T02:57:44.543Z,28.06
2023-05-24T03:00:12.873Z,28.19
2023-05-24T03:02:42.898Z,27.95
2023-05-24T03:05:10.635Z,27.50
2023-05-24T03:07:38.167Z,26.26
2023-05-24T03:10:07.224Z,25.76
2023-05-24T03:12:34.828Z,24.73
2023-05-24T03:15:02.497Z,23.93
2023-05-24T03:17:31.964Z,23.59
2023-05-24T03:20:00.409Z,22.76
2023-05-24T03:22:31.339Z,21.87
2023-05-24T03:24:58.949Z,21.51
2023-05-24T03:27:26.648Z,21.32
2023-05-24T03:29:55.087Z,20.82
2023-05-24T03:32:26.366Z,20.19
2023-05-24T03:34:53.960Z,19.81
2023-05-24T03:37:21.670Z,19.59
2023-05-24T03:39:49.280Z,19.02
2023-05-24T03:42:35.034Z,18.77
2023-05-24T03:45:02.585Z,18.12
2023-05-24T03:47:32.367Z,17.81
2023-05-24T03:50:00.131Z,17.62
2023-05-24T03:52:27.720Z,17.53
2023-05-24T03:54:55.412Z,17.20
2023-05-24T03:57:22.891Z,16.44
2023-05-24T03:59:50.418Z,16.62
2023-05-24T04:02:17.996Z,16.34
2023-05-24T04:04:46.159Z,15.96
2023-05-24T04:07:15.739Z,15.49
2023-05-24T04:09:43.754Z,15.60
2023-05-24T04:12:12.114Z,15.09
2023-05-24T04:14:42.364Z,14.55
2023-05-24T04:17:10.318Z,14.90
2023-05-24T04:19:38.019Z,14.56
2023-05-24T04:22:05.850Z,14.25
2023-05-24T04:24:33.435Z,14.38
2023-05-24T04:27:01.039Z,14.12
2023-05-24T04:29:28.908Z,13.82
2023-05-24T04:31:56.758Z,13.52
2023-05-24T04:34:25.878Z,13.28
2023-05-24T04:36:53.404Z,13.13
2023-05-24T04:39:21.152Z,12.36
2023-05-24T04:41:51.451Z,12.00
2023-05-24T04:44:19.637Z,11.90
2023-05-24T04:46:47.092Z,11.65
2023-05-24T04:49:14.640Z,11.50
2023-05-24T04:51:42.393Z,11.10
2023-05-24T04:54:10.120Z,10.70
2023-05-24T04:56:39.069Z,10.76
2023-05-24T04:59:07.802Z,10.66
2023-05-24T05:01:35.483Z,10.73
2023-05-24T05:04:06.790Z,10.23
2023-05-24T05:06:38.985Z,10.48
2023-05-24T05:09:10.806Z,10.06
2023-05-24T05:11:38.367Z,10.46
2023-05-24T05:14:06.703Z,9.67
2023-05-24T05:16:34.345Z,10.02
2023-05-24T05:19:04.967Z,9.36
2023-05-24T05:21:36.955Z,9.55
2023-05-24T05:24:04.482Z,9.40
2023-05-24T05:26:32.040Z,9.48
2023-05-24T05:28:59.577Z,9.29
2023-05-24T05:31:27.128Z,9.49
2023-05-24T05:33:54.620Z,9.11
2023-05-24T05:36:22.105Z,9.13
2023-05-24T05:38:49.637Z,8.39
2023-05-24T05:41:18.330Z,8.34
2023-05-24T05:43:46.143Z,8.39
2023-05-24T05:46:15.955Z,8.59
2023-05-24T05:48:45.668Z,8.16
2023-05-24T05:51:14.382Z,8.31
2023-05-24T05:53:41.966Z,8.23
2023-05-24T05:56:09.494Z,8.04
2023-05-24T05:58:39.158Z,7.58
2023-05-24T06:01:06.629Z,7.82
2023-05-24T06:03:34.512Z,7.58
2023-05-24T06:06:02.317Z,7.58
2023-05-24T06:08:35.365Z,7.02
2023-05-24T06:11:03.629Z,6.83
2023-05-24T06:13:33.205Z,6.87
2023-05-24T06:16:01.597Z,6.67
2023-05-24T06:18:30.833Z,6.65
2023-05-24T06:20:58.370Z,6.29
2023-05-24T06:23:26.070Z,6.40
2023-05-24T06:25:53.513Z,6.63
2023-05-24T06:28:21.111Z,6.34
2023-05-24T06:30:48.706Z,6.21
2023-05-24T06:33:16.541Z,5.94
2023-05-24T06:35:44.153Z,5.83
2023-05-24T06:38:11.744Z,6.24
2023-05-24T06:40:39.462Z,6.19
2023-05-24T06:43:07.161Z,5.71
2023-05-24T06:45:34.717Z,5.95
2023-05-24T06:48:02.605Z,5.98
2023-05-24T06:50:30.249Z,5.63
2023-05-24T06:52:57.790Z,5.92
2023-05-24T06:55:25.280Z,6.11
2023-05-24T06:57:52.791Z,5.75
2023-05-24T07:00:20.982Z,6.06
2023-05-24T07:02:48.545Z,5.71
2023-05-24T07:05:16.307Z,5.56
2023-05-24T07:07:44.330Z,5.08
2023-05-24T07:10:12.601Z,5.35
2023-05-24T07:12:40.237Z,5.70
2023-05-24T07:15:09.045Z,5.60
2023-05-24T07:17:36.841Z,5.58
2023-05-24T07:20:07.659Z,5.53
2023-05-24T07:22:35.228Z,6.06
2023-05-24T07:25:03.301Z,6.19
2023-05-24T07:27:31.015Z,6.52
2023-05-24T07:29:58.990Z,6.33
2023-05-24T07:32:27.218Z,6.50
2023-05-24T07:34:55.634Z,6.36
2023-05-24T07:37:24.909Z,6.62
2023-05-24T07:39:52.546Z,6.77
2023-05-24T07:42:21.024Z,6.62
2023-05-24T07:44:48.574Z,6.97
2023-05-24T07:47:16.222Z,7.09
2023-05-24T07:49:43.735Z,7.17
2023-05-24T07:52:11.273Z,7.18
2023-05-24T07:54:38.753Z,7.41
2023-05-24T07:57:09.311Z,7.67
2023-05-24T07:59:37.131Z,7.52
2023-05-24T08:02:05.965Z,7.68
2023-05-24T08:04:33.710Z,7.83
2023-05-24T08:07:03.110Z,7.65
2023-05-24T08:09:34.053Z,7.80
2023-05-24T08:12:02.693Z,7.36
2023-05-24T08:14:30.329Z,6.96
2023-05-24T08:16:58.030Z,7.08
2023-05-24T08:19:25.630Z,7.58
2023-05-24T08:21:53.526Z,7.54
2023-05-24T08:24:21.352Z,8.00
2023-05-24T08:26:50.155Z,7.93
2023-05-24T08:29:18.054Z,7.81
2023-05-24T08:31:45.568Z,7.98
2023-05-24T08:34:14.013Z,7.84
2023-05-24T08:36:44.089Z,8.06
2023-05-24T08:39:11.758Z,8.33
2023-05-24T08:41:39.544Z,8.18
2023-05-24T08:44:10.375Z,8.03
2023-05-24T08:46:39.579Z,8.23
2023-05-24T08:49:09.613Z,8.15
2023-05-24T08:51:38.877Z,8.56
2023-05-24T08:54:07.897Z,8.50
2023-05-24T08:56:35.757Z,8.72
2023-05-24T08:59:03.356Z,8.85
2023-05-24T09:01:32.817Z,8.71
2023-05-24T09:04:05.108Z,8.85
2023-05-24T09:06:33.751Z,8.97
2023-05-24T09:09:04.189Z,8.97
2023-05-24T09:11:33.067Z,9.32
2023-05-24T09:14:01.080Z,9.19
2023-05-24T09:16:28.785Z,8.88
2023-05-24T09:18:56.700Z,9.12
2023-05-24T09:21:25.458Z,8.66
2023-05-24T09:23:54.524Z,8.99
2023-05-24T09:26:22.466Z,9.35
2023-05-24T09:28:51.679Z,9.02
2023-05-24T09:31:19.285Z,9.05
2023-05-24T09:33:49.678Z,9.30
2023-05-24T09:36:17.815Z,9.04
2023-05-24T09:38:45.383Z,9.70
2023-05-24T09:41:13.209Z,9.46
2023-05-24T09:43:50.460Z,9.09
2023-05-24T09:46:22.101Z,9.39
2023-05-24T09:48:59.974Z,9.76
2023-05-24T09:51:27.558Z,9.63
2023-05-24T09:53:58.214Z,9.97
2023-05-24T09:56:25.846Z,10.16
2023-05-24T09:58:55.218Z,10.53
2023-05-24T10:01:25.758Z,10.15
2023-05-24T10:03:55.697Z,10.48
2023-05-24T10:06:24.310Z,10.65
2023-05-24T10:08:52.660Z,11.07
2023-05-24T10:11:20.604Z,10.64
2023-05-24T10:13:51.450Z,10.44
2023-05-24T10:16:19.166Z,10.44
2023-05-24T10:18:46.725Z,10.40
2023-05-24T10:21:14.497Z,10.58
2023-05-24T10:23:44.928Z,10.36
2023-05-24T10:26:14.737Z,10.62
2023-05-24T10:28:55.376Z,10.52
2023-05-24T10:31:28.577Z,11.08
2023-05-24T10:34:06.506Z,10.88
2023-05-24T10:36:35.426Z,10.68
2023-05-24T10:39:03.825Z,11.04
2023-05-24T10:41:40.143Z,10.93
2023-05-24T10:44:12.813Z,10.74
2023-05-24T10:47:12.507Z,10.89
2023-05-24T10:50:05.434Z,10.95
2023-05-24T10:52:37.269Z,10.84
2023-05-24T10:55:09.976Z,11.01
2023-05-24T10:57:39.045Z,11.25
2023-05-24T11:03:03.230Z,11.53
2023-05-24T11:05:51.005Z,11.27
2023-05-24T11:08:28.656Z,11.92
2023-05-24T11:13:44.327Z,12.07
2023-05-24T11:16:38.750Z,11.28
2023-05-24T11:19:20.453Z,11.25
2023-05-24T11:21:50.902Z,11.44
2023-05-24T11:24:19.084Z,11.75
2023-05-24T11:26:47.497Z,11.97
2023-05-24T11:29:21.296Z,11.93
2023-05-24T11:31:51.027Z,12.05
2023-05-24T11:34:22.132Z,12.23
2023-05-24T11:36:50.446Z,12.14
2023-05-24T11:39:18.572Z,12.03
2023-05-24T11:41:47.798Z,12.24
2023-05-24T11:44:20.023Z,12.17
2023-05-24T11:46:47.671Z,12.32
2023-05-24T11:49:18.699Z,12.32
2023-05-24T11:51:46.694Z,12.53
2023-05-24T11:54:14.533Z,12.44
2023-05-24T11:56:42.001Z,12.72
2023-05-24T11:59:17.229Z,12.72
2023-05-24T12:01:45.070Z,12.94
2023-05-24T12:04:13.223Z,12.86
2023-05-24T12:06:43.318Z,12.86
2023-05-24T12:09:13.646Z,12.54
2023-05-24T12:11:42.469Z,12.63
2023-05-24T12:14:14.703Z,12.81
2023-05-24T12:16:46.852Z,13.09
2023-05-24T12:21:57.109Z,13.06
2023-05-24T12:24:26.833Z,12.99
2023-05-24T12:27:03.956Z,13.43
2023-05-24T12:29:40.679Z,13.07
2023-05-24T12:32:13.889Z,13.51
2023-05-24T12:34:42.444Z,13.17
2023-05-24T12:37:15.240Z,13.54
2023-05-24T12:39:43.885Z,12.93
2023-05-24T12:42:15.572Z,13.71
2023-05-24T12:44:43.176Z,13.92
2023-05-24T12:47:10.921Z,14.33
2023-05-24T12:49:38.586Z,13.84
2023-05-24T12:52:06.724Z,14.03
2023-05-24T12:54:34.666Z,14.20
2023-05-24T12:57:05.500Z,14.14
2023-05-24T12:59:34.172Z,14.08
2023-05-24T13:02:02.522Z,14.35
2023-05-24T13:04:32.124Z,14.35
2023-05-24T13:07:00.558Z,14.43
2023-05-24T13:09:28.210Z,14.29
2023-05-24T13:11:56.103Z,14.34
2023-05-24T13:14:23.723Z,14.24
2023-05-24T13:16:51.578Z,14.09
2023-05-24T13:19:19.330Z,14.53
2023-05-24T13:21:46.866Z,14.55
2023-05-24T13:24:16.552Z,14.20
2023-05-24T13:26:45.718Z,14.14
2023-05-24T13:31:45.115Z,14.58
2023-05-24T13:34:13.122Z,14.86
2023-05-24T13:36:40.837Z,14.79
2023-05-24T13:41:42.598Z,14.88
2023-05-24T13:44:10.870Z,14.87
2023-05-24T13:46:39.250Z,15.15
2023-05-24T13:49:08.111Z,15.00
2023-05-24T13:51:36.068Z,14.86
2023-05-24T13:54:05.284Z,15.36
2023-05-24T13:56:34.460Z,15.34
2023-05-24T13:59:03.048Z,15.30
2023-05-24T14:01:31.445Z,15.29
2023-05-24T14:04:00.631Z,15.68
2023-05-24T14:06:28.344Z,15.78
2023-05-24T14:08:55.988Z,15.45
2023-05-24T14:11:25.094Z,15.33
2023-05-24T14:16:24.813Z,15.45
2023-05-24T14:18:52.521Z,15.38
2023-05-24T14:21:21.937Z,15.57
2023-05-24T14:23:50.417Z,15.59
2023-05-24T14:26:19.099Z,15.82
2023-05-24T14:28:47.198Z,15.65
2023-05-24T14:31:14.980Z,15.77
2023-05-24T14:33:42.509Z,15.82
2023-05-24T14:36:10.156Z,15.63
2023-05-24T14:38:37.724Z,15.49
2023-05-24T14:41:05.254Z,15.92
2023-05-24T14:43:32.837Z,15.67
2023-05-24T14:46:00.421Z,16.15
2023-05-24T14:48:28.049Z,15.92
2023-05-24T14:50:55.633Z,16.01
2023-05-24T14:53:23.132Z,16.15
2023-05-24T14:55:50.706Z,16.40
2023-05-24T14:58:18.932Z,16.31
2023-05-24T15:00:46.610Z,16.77
2023-05-24T15:03:15.186Z,16.53
2023-05-24T15:05:43.314Z,16.36
2023-05-24T15:08:11.799Z,16.62
2023-05-24T15:10:39.735Z,16.64
2023-05-24T15:13:07.322Z,16.80
2023-05-24T15:15:34.845Z,16.74
2023-05-24T15:18:02.575Z,17.04
2023-05-24T15:20:30.168Z,17.08
2023-05-24T15:22:57.816Z,17.29
2023-05-24T15:25:25.312Z,17.47
2023-05-24T15:27:53.142Z,17.14
2023-05-24T15:30:21.201Z,17.48
2023-05-24T15:32:48.742Z,17.35
2023-05-24T15:35:17.479Z,17.31
2023-05-24T15:37:46.071Z,17.34
2023-05-24T15:40:15.419Z,17.57
2023-05-24T15:42:43.053Z,17.62
2023-05-24T15:45:11.419Z,17.42
2023-05-24T15:47:40.554Z,17.79
2023-05-24T15:50:09.297Z,17.70
2023-05-24T15:52:37.341Z,17.92
2023-05-24T15:55:05.211Z,17.90
2023-05-24T15:57:32.784Z,18.34
2023-05-24T16:00:00.356Z,18.42
2023-05-24T16:02:28.278Z,17.92
2023-05-24T16:04:57.555Z,18.08
2023-05-24T16:07:25.207Z,18.22
2023-05-24T16:09:52.963Z,18.25
2023-05-24T16:12:21.056Z,18.35
2023-05-24T16:14:48.746Z,18.23
2023-05-24T16:17:16.486Z,18.44
2023-05-24T16:19:46.793Z,18.52
2023-05-24T16:22:14.409Z,18.44
2023-05-24T16:24:42.270Z,18.89
2023-05-24T16:27:10.065Z,19.52
2023-05-24T16:29:38.487Z,19.51
2023-05-24T16:32:07.792Z,19.08
2023-05-24T16:34:51.948Z,19.02
2023-05-24T16:37:23.017Z,19.16
2023-05-24T16:39:50.585Z,19.33
2023-05-24T16:42:18.168Z,19.31
2023-05-24T16:44:45.814Z,19.44
2023-05-24T16:47:13.482Z,19.93
2023-05-24T16:49:41.017Z,19.66
2023-05-24T16:52:08.834Z,19.86
2023-05-24T16:54:36.346Z,20.04
2023-05-24T16:57:04.045Z,20.09
2023-05-24T16:59:31.639Z,20.28
2023-05-24T17:01:59.348Z,20.70
2023-05-24T17:04:26.961Z,20.81
2023-05-24T17:06:54.451Z,20.93
2023-05-24T17:09:22.127Z,20.96
2023-05-24T17:11:51.015Z,20.95
2023-05-24T17:14:18.718Z,21.05
2023-05-24T17:16:46.277Z,21.35
2023-05-24T17:19:14.492Z,21.51
2023-05-24T17:21:42.338Z,21.58
2023-05-24T17:24:09.932Z,21.52
2023-05-24T17:26:39.343Z,21.89
2023-05-24T17:29:07.108Z,21.89
2023-05-24T17:31:34.652Z,21.63
2023-05-24T17:34:02.473Z,22.15
2023-05-24T17:36:33.774Z,22.28
2023-05-24T17:39:01.394Z,22.34
2023-05-24T17:41:28.955Z,22.35
2023-05-24T17:43:56.567Z,22.79
2023-05-24T17:46:24.206Z,22.89
2023-05-24T17:48:52.300Z,22.74
2023-05-24T17:51:19.969Z,23.16
2023-05-24T17:53:47.656Z,23.24
2023-05-24T17:56:15.308Z,23.21
2023-05-24T17:58:43.342Z,23.08
2023-05-24T18:01:12.374Z,23.30
2023-05-24T18:03:41.328Z,23.63
2023-05-24T18:06:09.695Z,23.86
2023-05-24T18:08:41.423Z,24.14
2023-05-24T18:11:09.825Z,24.43
2023-05-24T18:13:38.848Z,24.12
2023-05-24T18:16:13.615Z,24.33
2023-05-24T18:18:41.681Z,24.30
2023-05-24T18:21:10.121Z,24.56
2023-05-24T18:23:38.524Z,24.64
2023-05-24T18:26:10.772Z,25.14
2023-05-24T18:28:39.228Z,25.05
2023-05-24T18:31:16.570Z,25.63
2023-05-24T18:33:44.171Z,25.44
2023-05-24T18:36:12.994Z,25.90
2023-05-24T18:38:40.852Z,26.00
2023-05-24T18:41:12.562Z,26.34
2023-05-24T18:43:40.655Z,26.31
2023-05-24T18:46:09.403Z,26.54
2023-05-24T18:48:36.852Z,26.76
2023-05-24T18:51:04.701Z,27.05
2023-05-24T18:53:32.336Z,26.93
2023-05-24T18:56:00.032Z,27.27
2023-05-24T18:58:27.598Z,27.11
2023-05-24T19:00:55.384Z,27.35
2023-05-24T19:03:23.056Z,27.20
2023-05-24T19:05:50.705Z,27.59
2023-05-24T19:08:18.665Z,27.65
2023-05-24T19:10:46.421Z,27.37
2023-05-24T19:13:13.956Z,27.57
2023-05-24T19:15:42.005Z,27.76
2023-05-24T19:18:09.682Z,28.01
2023-05-24T19:20:37.547Z,27.84
2023-05-24T19:23:05.412Z,27.79
2023-05-24T19:25:40.605Z,27.69
2023-05-24T19:28:09.142Z,27.97
2023-05-24T19:30:37.913Z,28.22
2023-05-24T19:33:06.908Z,28.19
2023-05-24T19:35:34.938Z,27.98
2023-05-24T19:38:02.438Z,28.38
2023-05-24T19:40:30.060Z,28.25
2023-05-24T19:42:57.653Z,28.46
2023-05-24T19:45:25.312Z,28.15
2023-05-24T19:47:53.020Z,28.20
2023-05-24T19:50:20.648Z,27.96
2023-05-24T19:52:48.250Z,28.06
2023-05-24T19:55:15.857Z,28.76
2023-05-24T19:57:43.392Z,28.62
2023-05-24T20:00:12.741Z,28.95
2023-05-24T20:02:40.431Z,28.81
2023-05-24T20:05:09.217Z,29.28
2023-05-24T20:07:37.085Z,29.18
2023-05-24T20:10:05.802Z,29.21
2023-05-24T20:12:34.884Z,29.09
2023-05-24T20:15:02.549Z,28.85
2023-05-24T20:17:31.597Z,28.88
2023-05-24T20:19:59.245Z,29.04
2023-05-24T20:22:26.923Z,29.26
2023-05-24T20:24:54.363Z,29.55
2023-05-24T20:27:22.038Z,29.22
2023-05-24T20:29:49.532Z,29.67
2023-05-24T20:32:17.341Z,29.92
2023-05-24T20:34:44.984Z,30.18
2023-05-24T20:37:12.447Z,30.84
2023-05-24T20:39:39.953Z,30.52
2023-05-24T20:42:08.532Z,30.68
2023-05-24T20:44:36.303Z,30.78
2023-05-24T20:47:03.865Z,30.65
2023-05-24T20:49:31.478Z,31.13
2023-05-24T20:51:59.160Z,31.21
2023-05-24T20:54:27.100Z,30.93
2023-05-24T20:56:54.688Z,31.20
2023-05-24T20:59:22.350Z,31.00
2023-05-24T21:01:50.082Z,31.10
2023-05-24T21:04:17.708Z,31.00
2023-05-24T21:06:45.316Z,30.96
2023-05-24T21:09:13.013Z,30.70
2023-05-24T21:11:40.922Z,31.11
2023-05-24T21:14:08.540Z,31.21
2023-05-24T21:16:36.769Z,31.25
2023-05-24T21:19:04.400Z,31.51
2023-05-24T21:21:31.952Z,31.28
2023-05-24T21:23:59.491Z,31.39
2023-05-24T21:26:27.043Z,32.01
2023-05-24T21:28:54.636Z,31.92
2023-05-24T21:31:23.189Z,32.06
2023-05-24T21:33:50.813Z,31.76
2023-05-24T21:36:18.958Z,31.63
2023-05-24T21:38:46.699Z,32.01
2023-05-24T21:41:14.437Z,32.10
2023-05-24T21:43:43.060Z,31.74
2023-05-24T21:46:10.695Z,32.21
2023-05-24T21:48:38.301Z,32.04
2023-05-24T21:51:06.394Z,32.31
2023-05-24T21:53:35.377Z,32.88
2023-05-24T21:56:03.172Z,32.89
2023-05-24T21:58:31.004Z,33.44
2023-05-24T22:00:58.568Z,33.81
2023-05-24T22:03:26.464Z,33.56
2023-05-24T22:05:54.064Z,33.53
2023-05-24T22:08:21.704Z,34.16
2023-05-24T22:10:49.278Z,34.51
2023-05-24T22:13:16.838Z,33.91
2023-05-24T22:15:44.996Z,34.36
2023-05-24T22:18:17.706Z,34.23
2023-05-24T22:20:45.538Z,34.52
2023-05-24T22:23:14.867Z,34.87
2023-05-24T22:25:42.930Z,34.45
2023-05-24T22:28:10.935Z,34.31
2023-05-24T22:30:38.607Z,35.00
2023-05-24T22:33:06.568Z,35.28
2023-05-24T22:35:34.302Z,34.52
2023-05-24T22:38:02.029Z,35.23
2023-05-24T22:40:29.819Z,35.31
2023-05-24T22:42:57.443Z,35.17
2023-05-24T22:45:25.161Z,35.21
2023-05-24T22:47:54.430Z,35.17
2023-05-24T22:50:22.148Z,35.89
2023-05-24T22:52:49.886Z,35.54
2023-05-24T22:55:17.612Z,35.58
2023-05-24T22:57:45.342Z,35.56
2023-05-24T23:00:13.538Z,35.56
2023-05-24T23:02:41.267Z,35.67
2023-05-24T23:05:10.038Z,35.51
2023-05-24T23:07:38.471Z,35.93
2023-05-24T23:10:06.636Z,35.64
2023-05-24T23:12:34.813Z,36.24
2023-05-24T23:15:02.537Z,36.09
2023-05-24T23:17:31.614Z,36.31
2023-05-24T23:19:59.677Z,36.46
2023-05-24T23:22:27.429Z,36.76
2023-05-24T23:24:55.050Z,36.58
2023-05-24T23:27:22.860Z,37.20
2023-05-24T23:29:50.663Z,36.95
2023-05-24T23:32:18.348Z,37.01
2023-05-24T23:34:46.156Z,37.43
2023-05-24T23:37:14.021Z,37.44
2023-05-24T23:39:41.755Z,37.61
2023-05-24T23:42:09.455Z,37.07
2023-05-24T23:44:37.198Z,37.93
2023-05-24T23:47:05.178Z,38.60
2023-05-24T23:49:33.145Z,37.61
2023-05-24T23:52:00.908Z,38.30
2023-05-24T23:54:28.652Z,38.24
2023-05-24T23:56:56.493Z,38.46
2023-05-24T23:59:24.195Z,38.35
